sensor_id;sensor_type;location;lat;lon;timestamp;temperature;humidity
50738;DHT22;36703;48.154;17.126;2023-06-10T00:02:52;23.40;57.70
50738;DHT22;36703;48.154;17.126;2023-06-10T00:06:53;23.30;57.80
50738;DHT22;36703;48.154;17.126;2023-06-10T00:10:55;23.30;57.80
50738;DHT22;36703;48.154;17.126;2023-06-10T00:14:57;23.30;57.80
50738;DHT22;36703;48.154;17.126;2023-06-10T00:19:02;23.20;58.00
50738;DHT22;36703;48.154;17.126;2023-06-10T00:23:04;23.10;58.10
50738;DHT22;36703;48.154;17.126;2023-06-10T00:27:09;23.10;58.10
50738;DHT22;36703;48.154;17.126;2023-06-10T00:31:11;23.20;58.10
50738;DHT22;36703;48.154;17.126;2023-06-10T00:35:14;23.10;58.10
50738;DHT22;36703;48.154;17.126;2023-06-10T00:39:15;23.10;58.20
50738;DHT22;36703;48.154;17.126;2023-06-10T00:43:17;23.10;58.20
50738;DHT22;36703;48.154;17.126;2023-06-10T00:47:19;23.20;58.20
50738;DHT22;36703;48.154;17.126;2023-06-10T00:51:22;23.20;58.10
50738;DHT22;36703;48.154;17.126;2023-06-10T00:55:24;23.10;58.30
50738;DHT22;36703;48.154;17.126;2023-06-10T00:59:29;23.10;58.40
50738;DHT22;36703;48.154;17.126;2023-06-10T01:03:31;23.10;58.30
50738;DHT22;36703;48.154;17.126;2023-06-10T01:16:49;23.00;58.40
50738;DHT22;36703;48.154;17.126;2023-06-10T01:20:53;23.00;58.50
50738;DHT22;36703;48.154;17.126;2023-06-10T01:24:55;22.90;58.60
50738;DHT22;36703;48.154;17.126;2023-06-10T01:29:06;22.90;58.60
50738;DHT22;36703;48.154;17.126;2023-06-10T01:33:09;22.90;58.70
50738;DHT22;36703;48.154;17.126;2023-06-10T01:37:13;22.80;58.80
50738;DHT22;36703;48.154;17.126;2023-06-10T01:41:18;22.80;58.90
50738;DHT22;36703;48.154;17.126;2023-06-10T01:45:20;22.70;59.00
50738;DHT22;36703;48.154;17.126;2023-06-10T01:49:22;22.70;59.10
50738;DHT22;36703;48.154;17.126;2023-06-10T01:53:25;22.70;59.10
50738;DHT22;36703;48.154;17.126;2023-06-10T01:57:28;22.50;59.20
50738;DHT22;36703;48.154;17.126;2023-06-10T02:01:29;22.40;59.50
50738;DHT22;36703;48.154;17.126;2023-06-10T02:05:31;22.30;59.80
50738;DHT22;36703;48.154;17.126;2023-06-10T02:09:33;22.40;60.00
50738;DHT22;36703;48.154;17.126;2023-06-10T02:13:37;22.50;60.00
50738;DHT22;36703;48.154;17.126;2023-06-10T02:17:39;22.60;59.80
50738;DHT22;36703;48.154;17.126;2023-06-10T02:21:41;22.60;59.70
50738;DHT22;36703;48.154;17.126;2023-06-10T02:25:44;22.70;59.70
50738;DHT22;36703;48.154;17.126;2023-06-10T02:29:45;22.70;59.60
50738;DHT22;36703;48.154;17.126;2023-06-10T02:33:47;22.70;59.40
50738;DHT22;36703;48.154;17.126;2023-06-10T02:37:49;22.80;59.40
50738;DHT22;36703;48.154;17.126;2023-06-10T02:41:52;22.80;59.20
50738;DHT22;36703;48.154;17.126;2023-06-10T02:45:55;22.70;59.20
50738;DHT22;36703;48.154;17.126;2023-06-10T02:49:58;22.70;59.30
50738;DHT22;36703;48.154;17.126;2023-06-10T02:54:00;22.70;59.20
50738;DHT22;36703;48.154;17.126;2023-06-10T02:58:02;22.70;59.10
50738;DHT22;36703;48.154;17.126;2023-06-10T03:02:04;22.80;59.10
50738;DHT22;36703;48.154;17.126;2023-06-10T03:06:13;22.80;59.00
50738;DHT22;36703;48.154;17.126;2023-06-10T03:10:15;22.80;58.80
50738;DHT22;36703;48.154;17.126;2023-06-10T03:14:17;22.80;58.70
50738;DHT22;36703;48.154;17.126;2023-06-10T03:18:19;22.70;59.00
50738;DHT22;36703;48.154;17.126;2023-06-10T03:22:22;22.70;59.10
50738;DHT22;36703;48.154;17.126;2023-06-10T03:26:38;22.80;59.10
50738;DHT22;36703;48.154;17.126;2023-06-10T03:30:42;22.80;59.00
50738;DHT22;36703;48.154;17.126;2023-06-10T03:34:44;22.80;59.00
50738;DHT22;36703;48.154;17.126;2023-06-10T03:38:46;22.80;59.00
50738;DHT22;36703;48.154;17.126;2023-06-10T03:42:48;22.80;59.00
50738;DHT22;36703;48.154;17.126;2023-06-10T03:46:52;22.90;59.00
50738;DHT22;36703;48.154;17.126;2023-06-10T03:50:55;22.90;58.90
50738;DHT22;36703;48.154;17.126;2023-06-10T03:54:57;22.90;58.90
50738;DHT22;36703;48.154;17.126;2023-06-10T03:58:59;22.80;58.90
50738;DHT22;36703;48.154;17.126;2023-06-10T04:03:02;22.80;59.00
50738;DHT22;36703;48.154;17.126;2023-06-10T04:07:12;22.90;59.00
50738;DHT22;36703;48.154;17.126;2023-06-10T04:11:15;22.90;58.90
50738;DHT22;36703;48.154;17.126;2023-06-10T04:15:16;23.00;58.90
50738;DHT22;36703;48.154;17.126;2023-06-10T04:19:18;23.00;58.70
50738;DHT22;36703;48.154;17.126;2023-06-10T04:23:21;23.00;58.70
50738;DHT22;36703;48.154;17.126;2023-06-10T04:27:23;23.00;58.70
50738;DHT22;36703;48.154;17.126;2023-06-10T04:31:25;23.00;58.70
50738;DHT22;36703;48.154;17.126;2023-06-10T04:35:27;23.00;58.50
50738;DHT22;36703;48.154;17.126;2023-06-10T04:39:29;23.00;58.70
50738;DHT22;36703;48.154;17.126;2023-06-10T04:43:32;23.10;58.70
50738;DHT22;36703;48.154;17.126;2023-06-10T04:47:35;23.10;58.60
50738;DHT22;36703;48.154;17.126;2023-06-10T04:51:37;23.20;58.60
50738;DHT22;36703;48.154;17.126;2023-06-10T04:55:39;23.20;58.40
50738;DHT22;36703;48.154;17.126;2023-06-10T04:59:40;23.20;58.40
50738;DHT22;36703;48.154;17.126;2023-06-10T05:03:42;23.30;58.40
50738;DHT22;36703;48.154;17.126;2023-06-10T05:07:44;23.30;58.30
50738;DHT22;36703;48.154;17.126;2023-06-10T05:11:45;23.30;58.20
50738;DHT22;36703;48.154;17.126;2023-06-10T05:15:47;23.20;58.30
50738;DHT22;36703;48.154;17.126;2023-06-10T05:19:49;23.30;58.40
50738;DHT22;36703;48.154;17.126;2023-06-10T05:23:51;23.30;58.30
50738;DHT22;36703;48.154;17.126;2023-06-10T05:27:52;23.40;58.30
50738;DHT22;36703;48.154;17.126;2023-06-10T05:31:54;23.40;58.30
50738;DHT22;36703;48.154;17.126;2023-06-10T05:35:58;23.40;58.30
50738;DHT22;36703;48.154;17.126;2023-06-10T05:39:59;23.50;58.30
50738;DHT22;36703;48.154;17.126;2023-06-10T05:44:01;23.50;58.30
50738;DHT22;36703;48.154;17.126;2023-06-10T05:48:03;23.50;58.20
50738;DHT22;36703;48.154;17.126;2023-06-10T05:52:05;23.60;58.80
50738;DHT22;36703;48.154;17.126;2023-06-10T05:56:07;23.60;58.10
50738;DHT22;36703;48.154;17.126;2023-06-10T06:00:09;23.50;58.00
50738;DHT22;36703;48.154;17.126;2023-06-10T06:04:17;23.50;58.00
50738;DHT22;36703;48.154;17.126;2023-06-10T06:08:18;23.50;58.10
50738;DHT22;36703;48.154;17.126;2023-06-10T06:12:20;23.50;58.10
50738;DHT22;36703;48.154;17.126;2023-06-10T06:16:21;23.50;58.30
50738;DHT22;36703;48.154;17.126;2023-06-10T06:20:23;23.50;58.10
50738;DHT22;36703;48.154;17.126;2023-06-10T06:24:24;23.60;58.10
50738;DHT22;36703;48.154;17.126;2023-06-10T06:28:26;23.70;58.00
50738;DHT22;36703;48.154;17.126;2023-06-10T06:32:30;23.70;57.80
50738;DHT22;36703;48.154;17.126;2023-06-10T06:36:32;23.80;57.70
50738;DHT22;36703;48.154;17.126;2023-06-10T06:40:33;23.90;57.60
50738;DHT22;36703;48.154;17.126;2023-06-10T06:44:35;23.90;57.40
50738;DHT22;36703;48.154;17.126;2023-06-10T06:48:36;24.00;57.40
50738;DHT22;36703;48.154;17.126;2023-06-10T06:52:38;23.90;57.20
50738;DHT22;36703;48.154;17.126;2023-06-10T06:56:39;24.00;57.40
50738;DHT22;36703;48.154;17.126;2023-06-10T07:00:41;24.00;57.40
50738;DHT22;36703;48.154;17.126;2023-06-10T07:04:43;23.90;57.30
50738;DHT22;36703;48.154;17.126;2023-06-10T07:08:45;23.90;57.50
50738;DHT22;36703;48.154;17.126;2023-06-10T07:12:47;24.00;57.50
50738;DHT22;36703;48.154;17.126;2023-06-10T07:16:49;24.00;57.50
50738;DHT22;36703;48.154;17.126;2023-06-10T07:20:50;24.00;57.40
50738;DHT22;36703;48.154;17.126;2023-06-10T07:24:53;24.00;57.40
50738;DHT22;36703;48.154;17.126;2023-06-10T07:28:56;24.10;57.40
50738;DHT22;36703;48.154;17.126;2023-06-10T07:32:57;24.10;57.20
50738;DHT22;36703;48.154;17.126;2023-06-10T07:36:59;24.10;57.10
50738;DHT22;36703;48.154;17.126;2023-06-10T07:41:00;24.10;57.10
50738;DHT22;36703;48.154;17.126;2023-06-10T07:45:03;24.10;57.20
50738;DHT22;36703;48.154;17.126;2023-06-10T07:49:05;24.10;57.10
50738;DHT22;36703;48.154;17.126;2023-06-10T07:53:06;24.10;57.00
50738;DHT22;36703;48.154;17.126;2023-06-10T07:57:08;24.10;57.10
50738;DHT22;36703;48.154;17.126;2023-06-10T08:01:10;24.10;57.00
50738;DHT22;36703;48.154;17.126;2023-06-10T08:05:11;24.00;57.00
50738;DHT22;36703;48.154;17.126;2023-06-10T08:09:13;24.10;57.00
50738;DHT22;36703;48.154;17.126;2023-06-10T08:13:14;24.10;56.90
50738;DHT22;36703;48.154;17.126;2023-06-10T08:17:16;24.10;56.90
50738;DHT22;36703;48.154;17.126;2023-06-10T08:21:17;24.20;56.70
50738;DHT22;36703;48.154;17.126;2023-06-10T08:25:19;24.10;56.50
50738;DHT22;36703;48.154;17.126;2023-06-10T08:29:23;24.40;56.40
50738;DHT22;36703;48.154;17.126;2023-06-10T08:33:25;24.30;56.40
50738;DHT22;36703;48.154;17.126;2023-06-10T08:37:26;24.40;56.40
50738;DHT22;36703;48.154;17.126;2023-06-10T08:41:28;24.40;56.40
50738;DHT22;36703;48.154;17.126;2023-06-10T08:45:32;24.70;56.40
50738;DHT22;36703;48.154;17.126;2023-06-10T08:49:40;24.70;56.20
50738;DHT22;36703;48.154;17.126;2023-06-10T08:53:58;24.80;56.10
50738;DHT22;36703;48.154;17.126;2023-06-10T08:58:04;24.90;55.90
50738;DHT22;36703;48.154;17.126;2023-06-10T09:02:07;24.90;55.70
50738;DHT22;36703;48.154;17.126;2023-06-10T09:06:10;24.90;55.60
50738;DHT22;36703;48.154;17.126;2023-06-10T09:10:12;24.80;55.70
50738;DHT22;36703;48.154;17.126;2023-06-10T09:14:14;24.70;55.70
50738;DHT22;36703;48.154;17.126;2023-06-10T09:18:15;24.50;55.70
50738;DHT22;36703;48.154;17.126;2023-06-10T09:22:18;24.50;55.80
50738;DHT22;36703;48.154;17.126;2023-06-10T09:26:19;24.50;55.80
50738;DHT22;36703;48.154;17.126;2023-06-10T09:30:33;24.60;55.70
50738;DHT22;36703;48.154;17.126;2023-06-10T09:34:36;24.70;55.70
50738;DHT22;36703;48.154;17.126;2023-06-10T09:38:37;24.70;55.80
50738;DHT22;36703;48.154;17.126;2023-06-10T09:42:39;24.70;55.70
50738;DHT22;36703;48.154;17.126;2023-06-10T09:46:41;24.70;55.60
50738;DHT22;36703;48.154;17.126;2023-06-10T09:50:44;24.70;55.60
50738;DHT22;36703;48.154;17.126;2023-06-10T09:54:46;24.80;55.70
50738;DHT22;36703;48.154;17.126;2023-06-10T09:58:49;24.90;55.70
50738;DHT22;36703;48.154;17.126;2023-06-10T10:02:54;24.90;55.60
50738;DHT22;36703;48.154;17.126;2023-06-10T10:06:56;25.10;55.60
50738;DHT22;36703;48.154;17.126;2023-06-10T10:11:01;25.10;55.50
50738;DHT22;36703;48.154;17.126;2023-06-10T10:15:03;25.10;55.50
50738;DHT22;36703;48.154;17.126;2023-06-10T10:19:28;25.10;55.60
50738;DHT22;36703;48.154;17.126;2023-06-10T10:23:48;25.00;55.90
50738;DHT22;36703;48.154;17.126;2023-06-10T10:28:06;25.00;56.10
50738;DHT22;36703;48.154;17.126;2023-06-10T10:32:11;25.00;56.20
50738;DHT22;36703;48.154;17.126;2023-06-10T10:36:13;25.00;56.30
50738;DHT22;36703;48.154;17.126;2023-06-10T10:40:16;25.10;56.30
50738;DHT22;36703;48.154;17.126;2023-06-10T10:44:18;25.10;56.10
50738;DHT22;36703;48.154;17.126;2023-06-10T10:48:20;25.10;56.20
50738;DHT22;36703;48.154;17.126;2023-06-10T10:52:22;25.10;56.20
50738;DHT22;36703;48.154;17.126;2023-06-10T10:56:27;25.10;56.40
50738;DHT22;36703;48.154;17.126;2023-06-10T11:00:44;25.20;56.50
50738;DHT22;36703;48.154;17.126;2023-06-10T11:04:47;25.30;56.40
50738;DHT22;36703;48.154;17.126;2023-06-10T11:08:49;25.40;56.40
50738;DHT22;36703;48.154;17.126;2023-06-10T11:12:52;25.40;56.30
50738;DHT22;36703;48.154;17.126;2023-06-10T11:16:57;25.60;56.30
50738;DHT22;36703;48.154;17.126;2023-06-10T11:21:03;25.70;56.30
50738;DHT22;36703;48.154;17.126;2023-06-10T11:25:13;25.70;56.20
50738;DHT22;36703;48.154;17.126;2023-06-10T11:29:16;25.80;56.00
50738;DHT22;36703;48.154;17.126;2023-06-10T11:33:18;25.90;56.00
50738;DHT22;36703;48.154;17.126;2023-06-10T11:37:20;26.10;55.90
50738;DHT22;36703;48.154;17.126;2023-06-10T11:41:27;26.30;55.00
50738;DHT22;36703;48.154;17.126;2023-06-10T11:45:30;26.40;54.20
50738;DHT22;36703;48.154;17.126;2023-06-10T11:49:34;26.60;53.70
50738;DHT22;36703;48.154;17.126;2023-06-10T11:53:35;26.80;53.20
50738;DHT22;36703;48.154;17.126;2023-06-10T11:57:37;26.90;52.90
50738;DHT22;36703;48.154;17.126;2023-06-10T12:01:44;26.90;52.60
50738;DHT22;36703;48.154;17.126;2023-06-10T12:05:59;26.80;52.30
50738;DHT22;36703;48.154;17.126;2023-06-10T12:10:02;26.70;52.40
50738;DHT22;36703;48.154;17.126;2023-06-10T12:14:03;26.60;52.40
50738;DHT22;36703;48.154;17.126;2023-06-10T12:18:05;26.70;52.40
50738;DHT22;36703;48.154;17.126;2023-06-10T12:22:07;26.70;51.90
50738;DHT22;36703;48.154;17.126;2023-06-10T12:26:08;26.70;51.80
50738;DHT22;36703;48.154;17.126;2023-06-10T12:30:10;26.70;51.60
50738;DHT22;36703;48.154;17.126;2023-06-10T12:34:27;26.70;51.60
50738;DHT22;36703;48.154;17.126;2023-06-10T12:38:36;26.70;51.80
50738;DHT22;36703;48.154;17.126;2023-06-10T12:42:39;26.50;51.70
50738;DHT22;36703;48.154;17.126;2023-06-10T12:46:41;26.50;52.10
50738;DHT22;36703;48.154;17.126;2023-06-10T12:50:43;26.40;52.40
50738;DHT22;36703;48.154;17.126;2023-06-10T12:54:45;26.30;53.00
50738;DHT22;36703;48.154;17.126;2023-06-10T12:58:46;26.20;53.90
50738;DHT22;36703;48.154;17.126;2023-06-10T13:02:49;26.10;54.30
50738;DHT22;36703;48.154;17.126;2023-06-10T13:06:51;26.10;54.30
50738;DHT22;36703;48.154;17.126;2023-06-10T13:10:53;26.10;54.40
50738;DHT22;36703;48.154;17.126;2023-06-10T13:14:54;26.20;54.60
50738;DHT22;36703;48.154;17.126;2023-06-10T13:18:56;26.20;54.70
50738;DHT22;36703;48.154;17.126;2023-06-10T13:22:58;26.30;55.00
50738;DHT22;36703;48.154;17.126;2023-06-10T13:27:00;26.30;55.20
50738;DHT22;36703;48.154;17.126;2023-06-10T13:31:01;26.40;55.60
50738;DHT22;36703;48.154;17.126;2023-06-10T13:35:03;26.50;55.50
50738;DHT22;36703;48.154;17.126;2023-06-10T13:39:05;26.50;56.10
50738;DHT22;36703;48.154;17.126;2023-06-10T13:43:07;26.60;55.40
50738;DHT22;36703;48.154;17.126;2023-06-10T13:47:10;26.60;55.30
50738;DHT22;36703;48.154;17.126;2023-06-10T13:51:12;26.50;55.10
50738;DHT22;36703;48.154;17.126;2023-06-10T13:55:14;26.40;55.20
50738;DHT22;36703;48.154;17.126;2023-06-10T13:59:18;26.40;55.40
50738;DHT22;36703;48.154;17.126;2023-06-10T14:03:21;26.40;55.50
50738;DHT22;36703;48.154;17.126;2023-06-10T14:07:25;26.40;55.60
50738;DHT22;36703;48.154;17.126;2023-06-10T14:11:27;26.50;55.70
50738;DHT22;36703;48.154;17.126;2023-06-10T14:15:28;26.50;55.60
50738;DHT22;36703;48.154;17.126;2023-06-10T14:19:30;26.60;55.60
50738;DHT22;36703;48.154;17.126;2023-06-10T14:23:32;26.70;55.60
50738;DHT22;36703;48.154;17.126;2023-06-10T14:27:33;26.70;55.60
50738;DHT22;36703;48.154;17.126;2023-06-10T14:31:35;26.70;55.30
50738;DHT22;36703;48.154;17.126;2023-06-10T14:35:37;26.70;55.10
50738;DHT22;36703;48.154;17.126;2023-06-10T14:39:38;26.70;55.00
50738;DHT22;36703;48.154;17.126;2023-06-10T14:43:40;26.70;54.90
50738;DHT22;36703;48.154;17.126;2023-06-10T14:47:41;26.80;54.90
50738;DHT22;36703;48.154;17.126;2023-06-10T14:51:43;27.20;55.00
50738;DHT22;36703;48.154;17.126;2023-06-10T14:55:45;26.90;54.40
50738;DHT22;36703;48.154;17.126;2023-06-10T14:59:47;26.90;54.20
50738;DHT22;36703;48.154;17.126;2023-06-10T15:03:48;26.80;54.10
50738;DHT22;36703;48.154;17.126;2023-06-10T15:07:50;26.80;54.30
50738;DHT22;36703;48.154;17.126;2023-06-10T15:11:52;26.70;55.40
50738;DHT22;36703;48.154;17.126;2023-06-10T15:15:53;26.60;54.30
50738;DHT22;36703;48.154;17.126;2023-06-10T15:19:55;26.40;54.20
50738;DHT22;36703;48.154;17.126;2023-06-10T15:23:56;27.00;55.10
50738;DHT22;36703;48.154;17.126;2023-06-10T15:27:58;26.00;54.80
50738;DHT22;36703;48.154;17.126;2023-06-10T15:31:59;25.90;54.90
50738;DHT22;36703;48.154;17.126;2023-06-10T15:36:01;25.70;54.80
50738;DHT22;36703;48.154;17.126;2023-06-10T15:40:03;25.50;55.20
50738;DHT22;36703;48.154;17.126;2023-06-10T15:44:05;25.40;54.50
50738;DHT22;36703;48.154;17.126;2023-06-10T15:48:07;25.30;54.20
50738;DHT22;36703;48.154;17.126;2023-06-10T15:52:08;25.10;54.30
50738;DHT22;36703;48.154;17.126;2023-06-10T15:56:10;25.10;54.60
50738;DHT22;36703;48.154;17.126;2023-06-10T16:00:12;24.90;54.80
50738;DHT22;36703;48.154;17.126;2023-06-10T16:04:14;24.90;54.80
50738;DHT22;36703;48.154;17.126;2023-06-10T16:08:16;24.90;55.00
50738;DHT22;36703;48.154;17.126;2023-06-10T16:12:18;24.90;54.80
50738;DHT22;36703;48.154;17.126;2023-06-10T16:16:19;24.90;54.80
50738;DHT22;36703;48.154;17.126;2023-06-10T16:20:21;24.90;55.00
50738;DHT22;36703;48.154;17.126;2023-06-10T16:24:22;24.90;55.10
50738;DHT22;36703;48.154;17.126;2023-06-10T16:28:24;24.90;55.20
50738;DHT22;36703;48.154;17.126;2023-06-10T16:32:26;24.80;55.50
50738;DHT22;36703;48.154;17.126;2023-06-10T16:36:27;24.70;56.00
50738;DHT22;36703;48.154;17.126;2023-06-10T16:40:29;24.70;56.40
50738;DHT22;36703;48.154;17.126;2023-06-10T16:44:30;24.70;56.50
50738;DHT22;36703;48.154;17.126;2023-06-10T16:48:32;24.80;56.60
50738;DHT22;36703;48.154;17.126;2023-06-10T16:52:33;24.90;56.60
50738;DHT22;36703;48.154;17.126;2023-06-10T16:56:35;24.90;56.50
50738;DHT22;36703;48.154;17.126;2023-06-10T17:00:37;24.90;56.40
50738;DHT22;36703;48.154;17.126;2023-06-10T17:04:39;24.90;56.20
50738;DHT22;36703;48.154;17.126;2023-06-10T17:08:40;25.00;56.10
50738;DHT22;36703;48.154;17.126;2023-06-10T17:12:42;25.00;56.00
50738;DHT22;36703;48.154;17.126;2023-06-10T17:16:44;25.00;56.00
50738;DHT22;36703;48.154;17.126;2023-06-10T17:20:46;25.00;55.90
50738;DHT22;36703;48.154;17.126;2023-06-10T17:24:47;25.00;55.90
50738;DHT22;36703;48.154;17.126;2023-06-10T17:28:49;25.00;55.90
50738;DHT22;36703;48.154;17.126;2023-06-10T17:32:50;24.90;55.90
50738;DHT22;36703;48.154;17.126;2023-06-10T17:36:52;24.90;55.90
50738;DHT22;36703;48.154;17.126;2023-06-10T17:40:55;24.90;56.00
50738;DHT22;36703;48.154;17.126;2023-06-10T17:44:57;24.90;56.10
50738;DHT22;36703;48.154;17.126;2023-06-10T17:48:58;24.90;56.30
50738;DHT22;36703;48.154;17.126;2023-06-10T17:53:00;24.90;56.50
50738;DHT22;36703;48.154;17.126;2023-06-10T17:57:02;24.70;56.40
50738;DHT22;36703;48.154;17.126;2023-06-10T18:01:04;24.70;56.60
50738;DHT22;36703;48.154;17.126;2023-06-10T18:05:06;24.60;56.50
50738;DHT22;36703;48.154;17.126;2023-06-10T18:09:08;24.40;56.40
50738;DHT22;36703;48.154;17.126;2023-06-10T18:13:09;24.50;56.50
50738;DHT22;36703;48.154;17.126;2023-06-10T18:17:11;24.50;56.50
50738;DHT22;36703;48.154;17.126;2023-06-10T18:21:14;24.50;56.50
50738;DHT22;36703;48.154;17.126;2023-06-10T18:25:15;24.50;56.60
50738;DHT22;36703;48.154;17.126;2023-06-10T18:29:17;24.50;56.50
50738;DHT22;36703;48.154;17.126;2023-06-10T18:33:18;24.50;56.50
50738;DHT22;36703;48.154;17.126;2023-06-10T18:37:20;24.50;56.40
50738;DHT22;36703;48.154;17.126;2023-06-10T18:41:22;24.60;56.30
50738;DHT22;36703;48.154;17.126;2023-06-10T18:45:24;24.60;56.20
50738;DHT22;36703;48.154;17.126;2023-06-10T18:49:26;24.60;56.20
50738;DHT22;36703;48.154;17.126;2023-06-10T18:53:28;24.60;56.20
50738;DHT22;36703;48.154;17.126;2023-06-10T18:57:30;24.70;56.30
50738;DHT22;36703;48.154;17.126;2023-06-10T19:01:31;24.70;56.50
50738;DHT22;36703;48.154;17.126;2023-06-10T19:05:33;24.70;56.60
50738;DHT22;36703;48.154;17.126;2023-06-10T19:09:34;24.70;56.80
50738;DHT22;36703;48.154;17.126;2023-06-10T19:13:36;24.70;57.30
50738;DHT22;36703;48.154;17.126;2023-06-10T19:17:38;24.70;56.90
50738;DHT22;36703;48.154;17.126;2023-06-10T19:21:40;24.70;57.10
50738;DHT22;36703;48.154;17.126;2023-06-10T19:25:41;24.70;57.30
50738;DHT22;36703;48.154;17.126;2023-06-10T19:29:43;24.70;57.60
50738;DHT22;36703;48.154;17.126;2023-06-10T19:33:44;24.70;57.40
50738;DHT22;36703;48.154;17.126;2023-06-10T19:37:46;24.70;57.50
50738;DHT22;36703;48.154;17.126;2023-06-10T19:41:48;24.60;57.50
50738;DHT22;36703;48.154;17.126;2023-06-10T19:45:49;24.50;57.50
50738;DHT22;36703;48.154;17.126;2023-06-10T19:49:51;24.50;57.60
50738;DHT22;36703;48.154;17.126;2023-06-10T19:53:52;24.40;57.70
50738;DHT22;36703;48.154;17.126;2023-06-10T19:57:54;24.50;57.60
50738;DHT22;36703;48.154;17.126;2023-06-10T20:01:56;24.60;57.50
50738;DHT22;36703;48.154;17.126;2023-06-10T20:05:57;24.50;57.50
50738;DHT22;36703;48.154;17.126;2023-06-10T20:10:00;24.60;57.40
50738;DHT22;36703;48.154;17.126;2023-06-10T20:14:01;24.60;57.20
50738;DHT22;36703;48.154;17.126;2023-06-10T20:18:03;24.60;57.00
50738;DHT22;36703;48.154;17.126;2023-06-10T20:22:04;24.60;56.90
50738;DHT22;36703;48.154;17.126;2023-06-10T20:26:06;24.50;56.80
50738;DHT22;36703;48.154;17.126;2023-06-10T20:30:08;24.50;56.70
50738;DHT22;36703;48.154;17.126;2023-06-10T20:34:10;24.50;56.80
50738;DHT22;36703;48.154;17.126;2023-06-10T20:38:11;24.50;56.70
50738;DHT22;36703;48.154;17.126;2023-06-10T20:42:13;24.60;56.80
50738;DHT22;36703;48.154;17.126;2023-06-10T20:46:16;24.50;56.60
50738;DHT22;36703;48.154;17.126;2023-06-10T20:50:18;24.60;56.50
50738;DHT22;36703;48.154;17.126;2023-06-10T20:54:19;24.70;56.20
50738;DHT22;36703;48.154;17.126;2023-06-10T20:58:21;24.70;56.00
50738;DHT22;36703;48.154;17.126;2023-06-10T21:02:22;24.80;55.80
50738;DHT22;36703;48.154;17.126;2023-06-10T21:06:24;24.80;55.80
50738;DHT22;36703;48.154;17.126;2023-06-10T21:10:25;24.80;55.70
50738;DHT22;36703;48.154;17.126;2023-06-10T21:14:27;24.80;55.70
50738;DHT22;36703;48.154;17.126;2023-06-10T21:18:29;24.70;55.80
50738;DHT22;36703;48.154;17.126;2023-06-10T21:22:32;24.70;55.90
50738;DHT22;36703;48.154;17.126;2023-06-10T21:26:34;24.70;55.90
50738;DHT22;36703;48.154;17.126;2023-06-10T21:30:36;24.70;55.70
50738;DHT22;36703;48.154;17.126;2023-06-10T21:34:37;24.60;55.60
50738;DHT22;36703;48.154;17.126;2023-06-10T21:38:39;24.60;55.70
50738;DHT22;36703;48.154;17.126;2023-06-10T21:42:40;24.60;55.80
50738;DHT22;36703;48.154;17.126;2023-06-10T21:46:42;24.60;55.90
50738;DHT22;36703;48.154;17.126;2023-06-10T21:50:44;24.60;56.00
50738;DHT22;36703;48.154;17.126;2023-06-10T21:54:45;24.60;56.30
50738;DHT22;36703;48.154;17.126;2023-06-10T21:58:47;24.50;56.50
50738;DHT22;36703;48.154;17.126;2023-06-10T22:02:51;24.60;56.80
50738;DHT22;36703;48.154;17.126;2023-06-10T22:06:52;24.50;57.00
50738;DHT22;36703;48.154;17.126;2023-06-10T22:10:54;24.50;57.10
50738;DHT22;36703;48.154;17.126;2023-06-10T22:14:55;24.50;57.20
50738;DHT22;36703;48.154;17.126;2023-06-10T22:18:57;24.50;57.20
50738;DHT22;36703;48.154;17.126;2023-06-10T22:22:58;24.50;57.10
50738;DHT22;36703;48.154;17.126;2023-06-10T22:27:00;24.50;57.30
50738;DHT22;36703;48.154;17.126;2023-06-10T22:31:02;24.50;57.30
50738;DHT22;36703;48.154;17.126;2023-06-10T22:35:04;24.50;57.40
50738;DHT22;36703;48.154;17.126;2023-06-10T22:39:07;24.40;57.40
50738;DHT22;36703;48.154;17.126;2023-06-10T22:43:13;24.40;57.30
50738;DHT22;36703;48.154;17.126;2023-06-10T22:47:14;24.40;57.00
50738;DHT22;36703;48.154;17.126;2023-06-10T22:51:16;24.50;56.90
50738;DHT22;36703;48.154;17.126;2023-06-10T22:55:17;24.40;56.70
50738;DHT22;36703;48.154;17.126;2023-06-10T22:59:19;24.50;56.60
50738;DHT22;36703;48.154;17.126;2023-06-10T23:03:21;24.50;56.40
50738;DHT22;36703;48.154;17.126;2023-06-10T23:07:22;24.50;56.10
50738;DHT22;36703;48.154;17.126;2023-06-10T23:11:24;24.50;55.90
50738;DHT22;36703;48.154;17.126;2023-06-10T23:15:26;24.40;55.70
50738;DHT22;36703;48.154;17.126;2023-06-10T23:19:28;24.30;55.90
50738;DHT22;36703;48.154;17.126;2023-06-10T23:23:29;24.30;56.10
50738;DHT22;36703;48.154;17.126;2023-06-10T23:27:34;24.30;56.20
50738;DHT22;36703;48.154;17.126;2023-06-10T23:31:36;24.30;56.10
50738;DHT22;36703;48.154;17.126;2023-06-10T23:35:37;24.30;56.00
50738;DHT22;36703;48.154;17.126;2023-06-10T23:39:39;24.30;56.00
50738;DHT22;36703;48.154;17.126;2023-06-10T23:43:45;24.30;55.90
50738;DHT22;36703;48.154;17.126;2023-06-10T23:47:47;24.20;55.90
50738;DHT22;36703;48.154;17.126;2023-06-10T23:51:48;24.10;56.00
50738;DHT22;36703;48.154;17.126;2023-06-10T23:55:50;24.10;56.10
50738;DHT22;36703;48.154;17.126;2023-06-10T23:59:52;24.10;56.20
